createdAt,value
2018-04-19T00:02:41.617Z,11.00
2018-04-19T00:05:44.981Z,10.90
2018-04-19T00:08:48.321Z,10.80
2018-04-19T00:11:52.515Z,10.70
2018-04-19T00:14:55.893Z,10.70
2018-04-19T00:17:59.297Z,10.70
2018-04-19T00:21:02.696Z,10.70
2018-04-19T00:24:06.016Z,10.70
2018-04-19T00:27:09.400Z,10.70
2018-04-19T00:30:12.789Z,10.60
2018-04-19T00:33:16.193Z,10.70
2018-04-19T00:36:19.522Z,10.70
2018-04-19T00:39:22.880Z,10.70
2018-04-19T00:42:26.202Z,10.60
2018-04-19T00:45:29.597Z,10.60
2018-04-19T00:48:32.993Z,10.50
2018-04-19T00:51:36.338Z,10.50
2018-04-19T00:54:40.504Z,10.50
2018-04-19T00:57:43.845Z,10.40
2018-04-19T01:00:47.937Z,10.60
2018-04-19T01:03:51.321Z,10.60
2018-04-19T01:06:54.633Z,10.60
2018-04-19T01:09:58.027Z,10.50
2018-04-19T01:13:01.350Z,10.40
2018-04-19T01:16:04.727Z,10.40
2018-04-19T01:19:08.118Z,10.40
2018-04-19T01:22:11.527Z,10.40
2018-04-19T01:25:14.854Z,10.40
2018-04-19T01:28:19.036Z,10.30
2018-04-19T01:31:22.357Z,10.30
2018-04-19T01:34:25.693Z,10.20
2018-04-19T01:37:29.024Z,10.20
2018-04-19T01:40:32.353Z,10.20
2018-04-19T01:43:35.679Z,10.10
2018-04-19T01:46:39.017Z,10.10
2018-04-19T01:49:42.422Z,10.10
2018-04-19T01:52:45.777Z,10.00
2018-04-19T01:55:49.870Z,10.00
2018-04-19T01:58:53.219Z,10.00
2018-04-19T02:01:56.667Z,9.90
2018-04-19T02:05:00.054Z,10.00
2018-04-19T02:08:03.437Z,10.00
2018-04-19T02:11:06.838Z,10.00
2018-04-19T02:14:10.155Z,10.00
2018-04-19T02:17:13.546Z,9.90
2018-04-19T02:20:16.946Z,9.80
2018-04-19T02:23:20.323Z,9.80
2018-04-19T02:26:23.748Z,9.80
2018-04-19T02:29:27.130Z,9.80
2018-04-19T02:32:30.449Z,9.70
2018-04-19T02:35:33.834Z,9.70
2018-04-19T02:38:37.150Z,9.70
2018-04-19T02:41:40.525Z,9.60
2018-04-19T02:44:43.825Z,9.70
2018-04-19T02:47:47.242Z,9.60
2018-04-19T02:50:50.629Z,9.70
2018-04-19T02:53:54.025Z,9.70
2018-04-19T02:56:57.333Z,9.80
2018-04-19T03:00:00.656Z,9.70
2018-04-19T03:03:03.962Z,9.70
2018-04-19T03:06:08.061Z,9.80
2018-04-19T03:09:11.378Z,9.80
2018-04-19T03:12:15.860Z,9.70
2018-04-19T03:15:19.253Z,9.70
2018-04-19T03:18:22.572Z,9.60
2018-04-19T03:21:25.966Z,9.50
2018-04-19T03:24:29.355Z,9.50
2018-04-19T03:27:32.657Z,9.40
2018-04-19T03:30:35.993Z,9.40
2018-04-19T03:33:40.072Z,9.30
2018-04-19T03:36:43.409Z,9.40
2018-04-19T03:39:47.487Z,9.30
2018-04-19T03:42:50.891Z,9.30
2018-04-19T03:45:54.286Z,9.30
2018-04-19T03:48:57.688Z,9.20
2018-04-19T03:52:00.988Z,9.30
2018-04-19T03:55:04.493Z,9.30
2018-04-19T03:58:07.881Z,9.30
2018-04-19T04:01:11.385Z,9.30
2018-04-19T04:04:15.427Z,9.30
2018-04-19T04:07:18.771Z,9.20
2018-04-19T04:10:22.071Z,9.20
2018-04-19T04:13:25.510Z,9.20
2018-04-19T04:20:32.930Z,9.20
2018-04-19T04:23:52.770Z,9.30
2018-04-19T04:26:56.106Z,9.30
2018-04-19T04:29:59.418Z,9.30
2018-04-19T04:33:02.814Z,9.20
2018-04-19T04:36:06.229Z,9.20
2018-04-19T04:39:09.597Z,9.30
2018-04-19T04:42:12.917Z,9.30
2018-04-19T04:45:16.255Z,9.30
2018-04-19T04:48:19.602Z,9.40
2018-04-19T04:51:23.002Z,9.50
2018-04-19T04:54:26.320Z,9.60
2018-04-19T04:57:29.661Z,9.60
2018-04-19T05:00:32.992Z,9.70
2018-04-19T05:03:36.347Z,9.80
2018-04-19T05:06:39.671Z,9.90
2018-04-19T05:09:43.009Z,10.00
2018-04-19T05:12:46.323Z,10.00
2018-04-19T05:15:50.524Z,10.20
2018-04-19T05:18:53.902Z,10.20
2018-04-19T05:21:57.259Z,10.30
2018-04-19T05:25:00.575Z,10.40
2018-04-19T05:28:04.003Z,10.50
2018-04-19T05:31:07.327Z,10.60
2018-04-19T05:34:10.679Z,10.60
2018-04-19T05:37:14.147Z,10.70
2018-04-19T05:40:18.209Z,10.90
2018-04-19T05:43:21.542Z,10.90
2018-04-19T05:46:24.925Z,11.10
2018-04-19T05:49:28.250Z,11.20
2018-04-19T05:52:32.352Z,11.40
2018-04-19T05:55:35.726Z,11.40
2018-04-19T05:58:39.138Z,11.50
2018-04-19T06:01:42.530Z,11.60
2018-04-19T06:04:45.883Z,11.70
2018-04-19T06:07:49.193Z,11.80
2018-04-19T06:10:52.726Z,11.90
2018-04-19T06:13:56.081Z,12.00
2018-04-19T06:16:59.437Z,12.20
2018-04-19T06:20:02.836Z,12.40
2018-04-19T06:23:06.191Z,12.60
2018-04-19T06:26:09.514Z,13.00
2018-04-19T06:29:12.859Z,13.30
2018-04-19T06:32:16.936Z,13.80
2018-04-19T06:35:20.277Z,13.70
2018-04-19T06:38:24.450Z,14.10
2018-04-19T06:41:27.800Z,14.10
2018-04-19T06:44:31.885Z,14.40
2018-04-19T06:47:35.288Z,14.40
2018-04-19T06:50:38.665Z,14.50
2018-04-19T06:53:42.081Z,14.70
2018-04-19T06:56:45.480Z,14.90
2018-04-19T06:59:48.882Z,15.30
2018-04-19T07:02:52.203Z,15.50
2018-04-19T07:05:56.316Z,15.90
2018-04-19T07:09:00.393Z,16.10
2018-04-19T07:12:03.803Z,16.10
2018-04-19T07:15:07.159Z,16.30
2018-04-19T07:18:10.503Z,16.40
2018-04-19T07:21:13.898Z,16.60
2018-04-19T07:24:17.311Z,16.90
2018-04-19T07:27:20.713Z,17.00
2018-04-19T07:30:24.057Z,17.20
2018-04-19T07:33:27.381Z,17.40
2018-04-19T07:36:30.718Z,17.50
2018-04-19T07:39:34.094Z,17.70
2018-04-19T07:42:37.485Z,17.90
2018-04-19T07:45:40.887Z,18.00
2018-04-19T07:48:44.297Z,18.10
2018-04-19T07:51:47.705Z,18.30
2018-04-19T07:54:51.106Z,18.40
2018-04-19T07:57:54.415Z,18.50
2018-04-19T08:00:58.610Z,18.80
2018-04-19T08:04:01.949Z,18.80
2018-04-19T08:07:06.182Z,19.10
2018-04-19T08:10:09.490Z,19.00
2018-04-19T08:13:12.917Z,19.20
2018-04-19T08:16:16.247Z,19.40
2018-04-19T08:19:19.588Z,19.50
2018-04-19T08:22:22.911Z,19.60
2018-04-19T08:25:26.273Z,19.60
2018-04-19T08:28:29.588Z,19.60
2018-04-19T08:31:33.013Z,19.60
2018-04-19T08:34:36.411Z,19.90
2018-04-19T08:37:39.758Z,20.00
2018-04-19T08:40:43.929Z,20.20
2018-04-19T08:43:47.262Z,20.10
2018-04-19T08:46:50.645Z,20.20
2018-04-19T08:49:54.029Z,20.40
2018-04-19T08:52:57.339Z,20.50
2018-04-19T08:56:00.681Z,20.70
2018-04-19T08:59:04.012Z,20.80
2018-04-19T09:02:07.365Z,21.10
2018-04-19T09:05:11.441Z,21.20
2018-04-19T09:08:14.844Z,21.20
2018-04-19T09:11:18.164Z,21.50
2018-04-19T09:14:21.508Z,21.60
2018-04-19T09:17:24.821Z,21.50
2018-04-19T09:20:28.247Z,21.80
2018-04-19T09:23:32.326Z,21.60
2018-04-19T09:26:35.669Z,21.60
2018-04-19T09:29:38.973Z,21.80
2018-04-19T09:32:42.846Z,21.80
2018-04-19T09:35:46.181Z,21.90
2018-04-19T09:38:49.525Z,22.00
2018-04-19T09:41:52.866Z,22.00
2018-04-19T09:44:56.964Z,22.30
2018-04-19T09:48:00.269Z,22.20
2018-04-19T09:51:03.598Z,22.40
2018-04-19T09:54:07.812Z,22.60
2018-04-19T09:57:11.906Z,22.60
2018-04-19T10:00:15.240Z,22.60
2018-04-19T10:03:19.474Z,22.80
2018-04-19T10:06:22.818Z,22.80
2018-04-19T10:09:26.159Z,23.00
2018-04-19T10:12:30.237Z,23.20
2018-04-19T10:15:33.573Z,23.20
2018-04-19T10:18:37.651Z,23.00
2018-04-19T10:21:41.003Z,23.00
2018-04-19T10:24:44.358Z,22.80
2018-04-19T10:27:47.745Z,23.00
2018-04-19T10:30:51.147Z,22.90
2018-04-19T10:33:54.549Z,23.10
2018-04-19T10:36:58.002Z,23.30
2018-04-19T10:40:01.348Z,23.50
2018-04-19T10:43:04.685Z,23.20
2018-04-19T10:46:08.798Z,23.00
2018-04-19T10:49:12.894Z,22.50
2018-04-19T10:52:16.233Z,22.50
2018-04-19T10:55:19.558Z,22.20
2018-04-19T10:58:22.895Z,22.10
2018-04-19T11:01:26.235Z,22.20
2018-04-19T11:04:29.564Z,22.20
2018-04-19T11:07:32.887Z,22.30
2018-04-19T11:10:36.262Z,22.30
2018-04-19T11:13:39.596Z,22.40
2018-04-19T11:16:43.707Z,22.50
2018-04-19T11:19:47.789Z,22.70
2018-04-19T11:22:51.226Z,22.70
2018-04-19T11:25:54.599Z,22.60
2018-04-19T11:28:57.951Z,22.50
2018-04-19T11:32:01.288Z,22.20
2018-04-19T11:35:04.641Z,22.40
2018-04-19T11:38:08.816Z,22.40
2018-04-19T11:41:12.446Z,22.40
2018-04-19T11:44:16.556Z,22.20
2018-04-19T11:47:19.924Z,22.20
2018-04-19T11:50:23.286Z,22.30
2018-04-19T11:53:26.624Z,22.30
2018-04-19T11:56:30.088Z,22.10
2018-04-19T11:59:33.442Z,22.10
2018-04-19T12:02:36.891Z,22.10
2018-04-19T12:05:40.343Z,21.90
2018-04-19T12:08:43.730Z,21.70
2018-04-19T12:11:47.138Z,21.60
2018-04-19T12:14:50.559Z,21.60
2018-04-19T12:17:53.897Z,21.70
2018-04-19T12:20:57.227Z,21.70
2018-04-19T12:24:00.689Z,21.60
2018-04-19T12:27:04.021Z,21.50
2018-04-19T12:30:07.361Z,21.40
2018-04-19T12:33:11.452Z,21.20
2018-04-19T12:36:14.807Z,21.20
2018-04-19T12:39:18.131Z,21.20
2018-04-19T12:42:21.469Z,21.40
2018-04-19T12:45:24.837Z,21.50
2018-04-19T12:48:28.257Z,21.60
2018-04-19T12:51:31.667Z,21.60
2018-04-19T12:54:35.058Z,21.60
2018-04-19T12:57:38.434Z,21.70
2018-04-19T13:00:41.783Z,21.70
2018-04-19T13:03:45.870Z,21.80
2018-04-19T13:06:49.286Z,21.70
2018-04-19T13:09:53.414Z,21.80
2018-04-19T13:12:57.616Z,22.00
2018-04-19T13:16:01.705Z,22.00
2018-04-19T13:19:05.037Z,22.00
2018-04-19T13:22:09.121Z,21.90
2018-04-19T13:25:12.501Z,21.90
2018-04-19T13:28:15.928Z,21.90
2018-04-19T13:31:19.338Z,21.80
2018-04-19T13:34:22.664Z,21.50
2018-04-19T13:37:26.842Z,21.20
2018-04-19T13:40:30.150Z,21.20
2018-04-19T13:43:33.517Z,21.00
2018-04-19T13:46:36.863Z,21.10
2018-04-19T13:49:40.291Z,21.10
2018-04-19T13:52:43.896Z,21.10
2018-04-19T13:55:47.241Z,21.30
2018-04-19T13:58:50.568Z,21.50
2018-04-19T14:01:53.964Z,21.60
2018-04-19T14:04:57.332Z,21.80
2018-04-19T14:08:00.740Z,21.80
2018-04-19T14:11:04.062Z,21.70
2018-04-19T14:14:08.254Z,21.90
2018-04-19T14:17:11.656Z,21.90
2018-04-19T14:20:15.006Z,22.10
2018-04-19T14:23:18.333Z,22.20
2018-04-19T14:26:21.671Z,22.30
2018-04-19T14:29:25.860Z,22.30
2018-04-19T14:32:29.225Z,22.30
2018-04-19T14:35:32.573Z,22.30
2018-04-19T14:38:35.960Z,22.20
2018-04-19T14:41:39.284Z,22.00
2018-04-19T14:44:43.472Z,21.80
2018-04-19T14:47:46.807Z,21.70
2018-04-19T14:50:50.182Z,21.60
2018-04-19T14:53:53.606Z,21.50
2018-04-19T14:56:56.933Z,21.30
2018-04-19T15:00:00.300Z,21.30
2018-04-19T15:03:03.677Z,21.00
2018-04-19T15:06:07.080Z,20.80
2018-04-19T15:09:10.418Z,20.70
2018-04-19T15:12:14.497Z,20.70
2018-04-19T15:15:17.889Z,20.60
2018-04-19T15:18:21.221Z,20.50
2018-04-19T15:21:24.579Z,20.40
2018-04-19T15:24:27.889Z,20.20
2018-04-19T15:27:31.311Z,20.50
2018-04-19T15:30:34.689Z,21.00
2018-04-19T15:33:38.039Z,21.50
2018-04-19T15:36:41.391Z,22.10
2018-04-19T15:39:44.790Z,22.40
2018-04-19T15:42:48.140Z,22.70
2018-04-19T15:45:51.471Z,23.00
2018-04-19T15:48:54.793Z,23.30
2018-04-19T15:51:58.176Z,23.30
2018-04-19T15:55:01.605Z,23.40
2018-04-19T15:58:04.958Z,23.50
2018-04-19T16:01:08.294Z,23.90
2018-04-19T16:04:11.678Z,24.20
2018-04-19T16:07:15.082Z,24.10
2018-04-19T16:10:18.483Z,23.90
2018-04-19T16:13:21.826Z,24.10
2018-04-19T16:16:26.001Z,24.10
2018-04-19T16:19:29.326Z,24.10
2018-04-19T16:22:33.530Z,23.60
2018-04-19T16:25:36.852Z,23.60
2018-04-19T16:28:48.618Z,23.30
2018-04-19T16:31:44.333Z,23.30
2018-04-19T16:34:47.725Z,23.10
2018-04-19T16:37:51.041Z,22.90
2018-04-19T16:40:54.430Z,22.50
2018-04-19T16:43:57.779Z,22.10
2018-04-19T16:47:01.112Z,22.30
2018-04-19T16:50:04.437Z,22.60
2018-04-19T16:53:07.863Z,23.00
2018-04-19T16:56:11.241Z,23.50
2018-04-19T16:59:14.645Z,23.80
2018-04-19T17:02:17.956Z,23.80
2018-04-19T17:05:22.080Z,23.90
2018-04-19T17:08:26.183Z,23.50
2018-04-19T17:11:30.377Z,23.20
2018-04-19T17:14:33.702Z,23.20
2018-04-19T17:17:37.876Z,22.60
2018-04-19T17:20:41.379Z,22.60
2018-04-19T17:23:44.740Z,22.10
2018-04-19T17:26:48.063Z,21.80
2018-04-19T17:29:51.420Z,21.40
2018-04-19T17:32:55.506Z,20.70
2018-04-19T17:35:58.923Z,20.60
2018-04-19T17:39:02.266Z,20.70
2018-04-19T17:42:05.711Z,20.30
2018-04-19T17:45:09.101Z,20.10
2018-04-19T17:48:12.466Z,19.70
2018-04-19T17:51:15.793Z,19.20
2018-04-19T17:54:19.196Z,18.80
2018-04-19T17:57:22.526Z,18.40
2018-04-19T18:00:26.722Z,17.60
2018-04-19T18:03:30.132Z,17.60
2018-04-19T18:06:33.490Z,17.40
2018-04-19T18:09:36.811Z,17.40
2018-04-19T18:12:40.175Z,17.30
2018-04-19T18:15:43.485Z,17.10
2018-04-19T18:18:46.854Z,16.80
2018-04-19T18:21:50.945Z,16.30
2018-04-19T18:24:54.335Z,16.30
2018-04-19T18:27:57.720Z,16.10
2018-04-19T18:31:01.143Z,15.80
2018-04-19T18:34:04.538Z,15.70
2018-04-19T18:37:07.933Z,15.50
2018-04-19T18:40:11.259Z,15.30
2018-04-19T18:43:15.397Z,15.20
2018-04-19T18:46:18.701Z,15.10
2018-04-19T18:49:22.171Z,15.00
2018-04-19T18:52:26.361Z,15.00
2018-04-19T18:55:29.767Z,15.00
2018-04-19T18:58:33.162Z,14.90
2018-04-19T19:01:36.567Z,14.90
2018-04-19T19:04:39.888Z,14.80
2018-04-19T19:07:44.009Z,14.80
2018-04-19T19:10:48.090Z,14.80
2018-04-19T19:13:51.467Z,14.80
2018-04-19T19:16:54.784Z,14.80
2018-04-19T19:20:18.814Z,14.70
2018-04-19T19:23:22.995Z,14.40
2018-04-19T19:26:26.390Z,14.40
2018-04-19T19:29:29.742Z,14.40
2018-04-19T19:32:33.202Z,14.40
2018-04-19T19:35:36.536Z,14.40
2018-04-19T19:38:40.641Z,14.30
2018-04-19T19:41:44.735Z,14.30
2018-04-19T19:44:48.863Z,14.30
2018-04-19T19:47:52.181Z,14.20
2018-04-19T19:50:56.366Z,14.10
2018-04-19T19:54:00.486Z,14.10
2018-04-19T19:57:04.601Z,14.00
2018-04-19T20:00:07.984Z,14.00
2018-04-19T20:03:11.348Z,13.90
2018-04-19T20:06:15.354Z,13.90
2018-04-19T20:09:18.816Z,13.80
2018-04-19T20:12:22.214Z,13.90
2018-04-19T20:15:25.564Z,13.80
2018-04-19T20:18:28.891Z,13.80
2018-04-19T20:21:32.232Z,13.70
2018-04-19T20:24:36.430Z,13.60
2018-04-19T20:27:39.826Z,13.50
2018-04-19T20:30:43.230Z,13.50
2018-04-19T20:33:48.150Z,13.50
2018-04-19T20:36:51.545Z,13.50
2018-04-19T20:39:54.901Z,13.50
2018-04-19T20:42:59.001Z,13.50
2018-04-19T20:46:03.196Z,13.60
2018-04-19T20:49:06.524Z,13.60
2018-04-19T20:52:10.715Z,13.60
2018-04-19T20:55:14.045Z,13.60
2018-04-19T20:58:17.513Z,13.50
2018-04-19T21:01:20.915Z,13.50
2018-04-19T21:04:24.307Z,13.50
2018-04-19T21:07:27.714Z,13.50
2018-04-19T21:10:31.053Z,13.40
2018-04-19T21:13:34.373Z,13.40
2018-04-19T21:16:37.717Z,13.40
2018-04-19T21:19:41.032Z,13.30
2018-04-19T21:22:45.137Z,13.20
2018-04-19T21:25:48.452Z,13.20
2018-04-19T21:28:52.556Z,13.10
2018-04-19T21:31:55.928Z,13.10
2018-04-19T21:34:59.278Z,13.00
2018-04-19T21:38:02.610Z,12.80
2018-04-19T21:41:06.017Z,12.80
2018-04-19T21:44:09.441Z,12.90
2018-04-19T21:47:12.802Z,12.90
2018-04-19T21:50:16.117Z,12.90
2018-04-19T21:53:19.466Z,12.90
2018-04-19T21:56:23.567Z,12.80
2018-04-19T21:59:26.914Z,12.80
2018-04-19T22:02:30.343Z,12.70
2018-04-19T22:05:33.762Z,12.60
2018-04-19T22:08:37.128Z,12.50
2018-04-19T22:11:40.468Z,12.50
2018-04-19T22:14:44.555Z,12.30
2018-04-19T22:17:47.941Z,12.30
2018-04-19T22:20:51.252Z,12.30
2018-04-19T22:23:54.653Z,12.30
2018-04-19T22:26:58.053Z,12.30
2018-04-19T22:30:01.389Z,12.20
2018-04-19T22:33:05.476Z,12.20
2018-04-19T22:36:08.874Z,12.20
2018-04-19T22:39:12.262Z,12.20
2018-04-19T22:42:15.665Z,12.20
2018-04-19T22:45:18.990Z,12.20
2018-04-19T22:48:22.350Z,12.20
2018-04-19T22:51:25.660Z,12.20
2018-04-19T22:54:29.162Z,12.20
2018-04-19T22:57:32.485Z,12.10
2018-04-19T23:00:35.861Z,12.10
2018-04-19T23:03:39.180Z,12.10
2018-04-19T23:06:42.557Z,12.10
2018-04-19T23:09:45.878Z,12.10
2018-04-19T23:12:49.255Z,12.10
2018-04-19T23:15:52.663Z,12.00
2018-04-19T23:18:56.004Z,12.00
2018-04-19T23:21:59.327Z,12.00
2018-04-19T23:25:02.721Z,12.00
2018-04-19T23:28:06.038Z,12.00
2018-04-19T23:31:09.449Z,12.00
2018-04-19T23:34:12.851Z,12.00
2018-04-19T23:37:16.202Z,12.00
2018-04-19T23:40:19.649Z,11.90
2018-04-19T23:43:23.001Z,11.90
2018-04-19T23:46:26.332Z,11.80
2018-04-19T23:49:29.750Z,11.70
2018-04-19T23:52:33.071Z,11.70
2018-04-19T23:55:36.434Z,11.70
2018-04-19T23:58:39.832Z,11.60
